sensor_id;sensor_type;location;lat;lon;timestamp;temperature;humidity
21502;DHT22;27639;48.674;9.242;2022-09-28T00:00:07;13.00;62.10
21502;DHT22;27639;48.674;9.242;2022-09-28T00:02:33;13.00;62.10
21502;DHT22;27639;48.674;9.242;2022-09-28T00:05:00;13.10;62.10
21502;DHT22;27639;48.674;9.242;2022-09-28T00:07:26;13.00;61.90
21502;DHT22;27639;48.674;9.242;2022-09-28T00:09:52;13.10;62.20
21502;DHT22;27639;48.674;9.242;2022-09-28T00:12:18;13.10;61.90
21502;DHT22;27639;48.674;9.242;2022-09-28T00:14:43;13.10;61.90
21502;DHT22;27639;48.674;9.242;2022-09-28T00:17:10;13.10;62.00
21502;DHT22;27639;48.674;9.242;2022-09-28T00:19:37;13.10;62.00
21502;DHT22;27639;48.674;9.242;2022-09-28T00:22:05;13.20;62.20
21502;DHT22;27639;48.674;9.242;2022-09-28T00:24:30;13.20;62.10
21502;DHT22;27639;48.674;9.242;2022-09-28T00:26:57;13.20;62.00
21502;DHT22;27639;48.674;9.242;2022-09-28T00:29:34;13.20;62.20
21502;DHT22;27639;48.674;9.242;2022-09-28T00:32:10;13.20;62.20
21502;DHT22;27639;48.674;9.242;2022-09-28T00:34:40;13.10;62.20
21502;DHT22;27639;48.674;9.242;2022-09-28T00:37:08;13.10;62.40
21502;DHT22;27639;48.674;9.242;2022-09-28T00:39:34;13.10;62.40
21502;DHT22;27639;48.674;9.242;2022-09-28T00:42:03;13.10;62.40
21502;DHT22;27639;48.674;9.242;2022-09-28T00:44:39;13.00;62.40
21502;DHT22;27639;48.674;9.242;2022-09-28T00:53:17;12.90;62.80
21502;DHT22;27639;48.674;9.242;2022-09-28T00:55:47;12.80;62.90
21502;DHT22;27639;48.674;9.242;2022-09-28T00:58:18;12.70;63.50
21502;DHT22;27639;48.674;9.242;2022-09-28T01:00:46;12.70;63.50
21502;DHT22;27639;48.674;9.242;2022-09-28T01:03:12;12.80;63.80
21502;DHT22;27639;48.674;9.242;2022-09-28T01:05:38;12.80;63.80
21502;DHT22;27639;48.674;9.242;2022-09-28T01:08:05;12.80;64.00
21502;DHT22;27639;48.674;9.242;2022-09-28T01:10:32;12.80;64.80
21502;DHT22;27639;48.674;9.242;2022-09-28T01:12:58;12.80;64.00
21502;DHT22;27639;48.674;9.242;2022-09-28T01:15:25;12.80;64.20
21502;DHT22;27639;48.674;9.242;2022-09-28T01:26:33;12.80;64.30
21502;DHT22;27639;48.674;9.242;2022-09-28T01:34:51;12.90;64.50
21502;DHT22;27639;48.674;9.242;2022-09-28T01:37:20;12.80;64.60
21502;DHT22;27639;48.674;9.242;2022-09-28T01:39:47;12.80;64.80
21502;DHT22;27639;48.674;9.242;2022-09-28T01:42:19;12.80;64.80
21502;DHT22;27639;48.674;9.242;2022-09-28T01:44:48;12.90;64.90
21502;DHT22;27639;48.674;9.242;2022-09-28T01:47:19;12.90;64.80
21502;DHT22;27639;48.674;9.242;2022-09-28T01:49:49;12.90;65.00
21502;DHT22;27639;48.674;9.242;2022-09-28T01:52:32;12.90;64.90
21502;DHT22;27639;48.674;9.242;2022-09-28T01:55:27;12.90;64.90
21502;DHT22;27639;48.674;9.242;2022-09-28T02:00:44;13.00;64.90
21502;DHT22;27639;48.674;9.242;2022-09-28T02:03:18;13.00;64.80
21502;DHT22;27639;48.674;9.242;2022-09-28T02:05:51;13.00;64.70
21502;DHT22;27639;48.674;9.242;2022-09-28T02:11:18;13.00;64.70
21502;DHT22;27639;48.674;9.242;2022-09-28T02:13:51;13.10;64.60
21502;DHT22;27639;48.674;9.242;2022-09-28T02:16:28;13.10;64.70
21502;DHT22;27639;48.674;9.242;2022-09-28T02:18:55;13.00;64.80
21502;DHT22;27639;48.674;9.242;2022-09-28T02:21:45;13.00;64.80
21502;DHT22;27639;48.674;9.242;2022-09-28T02:24:21;13.10;64.60
21502;DHT22;27639;48.674;9.242;2022-09-28T02:26:49;13.00;65.00
21502;DHT22;27639;48.674;9.242;2022-09-28T02:29:16;13.00;65.00
21502;DHT22;27639;48.674;9.242;2022-09-28T02:31:42;13.10;65.00
21502;DHT22;27639;48.674;9.242;2022-09-28T02:34:08;13.10;64.90
21502;DHT22;27639;48.674;9.242;2022-09-28T02:36:34;13.20;64.80
21502;DHT22;27639;48.674;9.242;2022-09-28T02:38:59;13.20;64.80
21502;DHT22;27639;48.674;9.242;2022-09-28T02:49:57;13.20;64.70
21502;DHT22;27639;48.674;9.242;2022-09-28T02:58:45;13.20;65.20
21502;DHT22;27639;48.674;9.242;2022-09-28T03:04:10;13.10;65.50
21502;DHT22;27639;48.674;9.242;2022-09-28T03:06:44;13.10;65.20
21502;DHT22;27639;48.674;9.242;2022-09-28T03:09:21;13.10;65.50
21502;DHT22;27639;48.674;9.242;2022-09-28T03:11:51;13.10;65.20
21502;DHT22;27639;48.674;9.242;2022-09-28T03:14:18;13.20;65.30
21502;DHT22;27639;48.674;9.242;2022-09-28T03:16:44;13.20;65.30
21502;DHT22;27639;48.674;9.242;2022-09-28T03:19:11;13.20;65.20
21502;DHT22;27639;48.674;9.242;2022-09-28T03:21:37;13.30;65.10
21502;DHT22;27639;48.674;9.242;2022-09-28T03:24:02;13.30;65.00
21502;DHT22;27639;48.674;9.242;2022-09-28T03:26:30;13.30;65.00
21502;DHT22;27639;48.674;9.242;2022-09-28T03:28:56;13.30;65.00
21502;DHT22;27639;48.674;9.242;2022-09-28T03:31:22;13.30;64.90
21502;DHT22;27639;48.674;9.242;2022-09-28T03:33:47;13.30;65.00
21502;DHT22;27639;48.674;9.242;2022-09-28T03:36:13;13.30;65.40
21502;DHT22;27639;48.674;9.242;2022-09-28T03:38:39;13.30;64.80
21502;DHT22;27639;48.674;9.242;2022-09-28T03:41:05;13.30;64.80
21502;DHT22;27639;48.674;9.242;2022-09-28T03:43:31;13.30;64.90
21502;DHT22;27639;48.674;9.242;2022-09-28T03:45:59;13.20;65.00
21502;DHT22;27639;48.674;9.242;2022-09-28T03:48:31;13.20;65.10
21502;DHT22;27639;48.674;9.242;2022-09-28T03:50:58;13.20;65.30
21502;DHT22;27639;48.674;9.242;2022-09-28T03:53:25;13.20;65.40
21502;DHT22;27639;48.674;9.242;2022-09-28T03:55:51;13.20;65.40
21502;DHT22;27639;48.674;9.242;2022-09-28T03:58:18;13.10;65.60
21502;DHT22;27639;48.674;9.242;2022-09-28T04:00:44;13.10;65.60
21502;DHT22;27639;48.674;9.242;2022-09-28T04:03:10;13.10;65.70
21502;DHT22;27639;48.674;9.242;2022-09-28T04:05:35;13.20;65.70
21502;DHT22;27639;48.674;9.242;2022-09-28T04:08:01;13.10;65.60
21502;DHT22;27639;48.674;9.242;2022-09-28T04:10:27;13.10;65.90
21502;DHT22;27639;48.674;9.242;2022-09-28T04:12:56;13.10;66.00
21502;DHT22;27639;48.674;9.242;2022-09-28T04:15:25;13.10;65.90
21502;DHT22;27639;48.674;9.242;2022-09-28T04:17:50;13.10;66.10
21502;DHT22;27639;48.674;9.242;2022-09-28T04:20:17;13.10;66.10
21502;DHT22;27639;48.674;9.242;2022-09-28T04:22:42;13.10;66.00
21502;DHT22;27639;48.674;9.242;2022-09-28T04:25:09;13.00;66.20
21502;DHT22;27639;48.674;9.242;2022-09-28T04:27:35;13.00;66.20
21502;DHT22;27639;48.674;9.242;2022-09-28T04:30:19;13.00;66.30
21502;DHT22;27639;48.674;9.242;2022-09-28T04:32:45;13.00;66.70
21502;DHT22;27639;48.674;9.242;2022-09-28T04:35:12;13.10;66.30
21502;DHT22;27639;48.674;9.242;2022-09-28T04:37:37;13.20;66.20
21502;DHT22;27639;48.674;9.242;2022-09-28T04:40:03;13.30;65.80
21502;DHT22;27639;48.674;9.242;2022-09-28T04:42:29;13.40;65.50
21502;DHT22;27639;48.674;9.242;2022-09-28T04:44:54;13.40;65.10
21502;DHT22;27639;48.674;9.242;2022-09-28T04:47:22;13.40;64.80
21502;DHT22;27639;48.674;9.242;2022-09-28T04:49:47;13.40;64.40
21502;DHT22;27639;48.674;9.242;2022-09-28T04:52:13;13.50;64.40
21502;DHT22;27639;48.674;9.242;2022-09-28T04:54:38;13.50;64.30
21502;DHT22;27639;48.674;9.242;2022-09-28T04:57:04;13.50;64.10
21502;DHT22;27639;48.674;9.242;2022-09-28T04:59:30;13.50;63.90
21502;DHT22;27639;48.674;9.242;2022-09-28T05:01:56;13.50;63.90
21502;DHT22;27639;48.674;9.242;2022-09-28T05:04:21;13.40;64.50
21502;DHT22;27639;48.674;9.242;2022-09-28T05:06:48;13.40;63.90
21502;DHT22;27639;48.674;9.242;2022-09-28T05:09:13;13.40;63.90
21502;DHT22;27639;48.674;9.242;2022-09-28T05:11:39;13.50;63.90
21502;DHT22;27639;48.674;9.242;2022-09-28T05:14:05;13.50;64.10
21502;DHT22;27639;48.674;9.242;2022-09-28T05:16:30;13.40;64.00
21502;DHT22;27639;48.674;9.242;2022-09-28T05:18:58;13.40;64.00
21502;DHT22;27639;48.674;9.242;2022-09-28T05:21:24;13.40;64.00
21502;DHT22;27639;48.674;9.242;2022-09-28T05:23:51;13.40;64.00
21502;DHT22;27639;48.674;9.242;2022-09-28T05:26:17;13.50;64.90
21502;DHT22;27639;48.674;9.242;2022-09-28T05:28:42;13.50;64.00
21502;DHT22;27639;48.674;9.242;2022-09-28T05:31:09;13.50;63.90
21502;DHT22;27639;48.674;9.242;2022-09-28T05:33:35;13.50;63.80
21502;DHT22;27639;48.674;9.242;2022-09-28T05:36:01;13.50;63.70
21502;DHT22;27639;48.674;9.242;2022-09-28T05:38:27;13.50;63.80
21502;DHT22;27639;48.674;9.242;2022-09-28T05:40:54;13.50;63.90
21502;DHT22;27639;48.674;9.242;2022-09-28T05:43:19;13.40;63.80
21502;DHT22;27639;48.674;9.242;2022-09-28T05:45:45;13.50;63.90
21502;DHT22;27639;48.674;9.242;2022-09-28T05:48:10;13.50;63.90
21502;DHT22;27639;48.674;9.242;2022-09-28T05:50:36;13.50;63.90
21502;DHT22;27639;48.674;9.242;2022-09-28T05:53:04;13.50;63.90
21502;DHT22;27639;48.674;9.242;2022-09-28T05:55:30;13.50;64.00
21502;DHT22;27639;48.674;9.242;2022-09-28T05:57:57;13.40;64.00
21502;DHT22;27639;48.674;9.242;2022-09-28T06:00:27;13.50;64.20
21502;DHT22;27639;48.674;9.242;2022-09-28T06:03:01;13.50;64.20
21502;DHT22;27639;48.674;9.242;2022-09-28T06:05:27;13.50;65.00
21502;DHT22;27639;48.674;9.242;2022-09-28T06:07:57;13.30;64.20
21502;DHT22;27639;48.674;9.242;2022-09-28T06:10:24;13.40;64.60
21502;DHT22;27639;48.674;9.242;2022-09-28T06:12:54;13.40;64.50
21502;DHT22;27639;48.674;9.242;2022-09-28T06:15:24;13.50;64.50
21502;DHT22;27639;48.674;9.242;2022-09-28T06:17:57;13.50;64.60
21502;DHT22;27639;48.674;9.242;2022-09-28T06:20:24;13.50;64.20
21502;DHT22;27639;48.674;9.242;2022-09-28T06:22:51;13.50;64.30
21502;DHT22;27639;48.674;9.242;2022-09-28T06:25:17;13.50;64.30
21502;DHT22;27639;48.674;9.242;2022-09-28T06:27:42;13.50;64.40
21502;DHT22;27639;48.674;9.242;2022-09-28T06:30:08;13.50;64.50
21502;DHT22;27639;48.674;9.242;2022-09-28T06:32:34;13.50;64.60
21502;DHT22;27639;48.674;9.242;2022-09-28T06:34:59;13.50;64.70
21502;DHT22;27639;48.674;9.242;2022-09-28T06:37:25;13.50;64.80
21502;DHT22;27639;48.674;9.242;2022-09-28T06:39:52;13.50;64.60
21502;DHT22;27639;48.674;9.242;2022-09-28T06:42:18;13.60;64.60
21502;DHT22;27639;48.674;9.242;2022-09-28T06:44:43;13.60;64.60
21502;DHT22;27639;48.674;9.242;2022-09-28T06:47:11;13.50;64.50
21502;DHT22;27639;48.674;9.242;2022-09-28T06:49:36;13.60;64.80
21502;DHT22;27639;48.674;9.242;2022-09-28T06:52:02;13.60;64.80
21502;DHT22;27639;48.674;9.242;2022-09-28T06:54:27;13.60;65.60
21502;DHT22;27639;48.674;9.242;2022-09-28T06:56:53;13.60;64.90
21502;DHT22;27639;48.674;9.242;2022-09-28T06:59:18;13.60;64.80
21502;DHT22;27639;48.674;9.242;2022-09-28T07:01:44;13.60;64.80
21502;DHT22;27639;48.674;9.242;2022-09-28T07:04:10;13.70;64.90
21502;DHT22;27639;48.674;9.242;2022-09-28T07:06:35;13.70;64.80
21502;DHT22;27639;48.674;9.242;2022-09-28T07:09:02;13.70;64.80
21502;DHT22;27639;48.674;9.242;2022-09-28T07:11:35;13.80;65.00
21502;DHT22;27639;48.674;9.242;2022-09-28T07:14:04;13.80;64.90
21502;DHT22;27639;48.674;9.242;2022-09-28T07:16:29;13.80;65.10
21502;DHT22;27639;48.674;9.242;2022-09-28T07:18:55;13.80;64.90
21502;DHT22;27639;48.674;9.242;2022-09-28T07:21:20;13.80;64.90
21502;DHT22;27639;48.674;9.242;2022-09-28T07:23:46;13.80;64.90
21502;DHT22;27639;48.674;9.242;2022-09-28T07:26:13;13.80;64.80
21502;DHT22;27639;48.674;9.242;2022-09-28T07:28:39;13.80;64.70
21502;DHT22;27639;48.674;9.242;2022-09-28T07:31:06;13.80;64.50
21502;DHT22;27639;48.674;9.242;2022-09-28T07:33:31;13.80;64.50
21502;DHT22;27639;48.674;9.242;2022-09-28T07:35:57;13.80;64.50
21502;DHT22;27639;48.674;9.242;2022-09-28T07:38:26;13.80;64.70
21502;DHT22;27639;48.674;9.242;2022-09-28T07:40:51;13.80;64.70
21502;DHT22;27639;48.674;9.242;2022-09-28T07:43:35;13.80;64.80
21502;DHT22;27639;48.674;9.242;2022-09-28T07:46:03;13.80;64.80
21502;DHT22;27639;48.674;9.242;2022-09-28T07:48:33;13.80;64.90
21502;DHT22;27639;48.674;9.242;2022-09-28T07:51:01;13.70;64.70
21502;DHT22;27639;48.674;9.242;2022-09-28T07:53:27;13.80;64.80
21502;DHT22;27639;48.674;9.242;2022-09-28T07:55:53;13.80;64.50
21502;DHT22;27639;48.674;9.242;2022-09-28T07:58:19;13.70;64.40
21502;DHT22;27639;48.674;9.242;2022-09-28T08:00:45;13.80;64.50
21502;DHT22;27639;48.674;9.242;2022-09-28T08:03:13;13.80;64.30
21502;DHT22;27639;48.674;9.242;2022-09-28T08:05:39;13.70;64.40
21502;DHT22;27639;48.674;9.242;2022-09-28T08:08:05;13.70;64.40
21502;DHT22;27639;48.674;9.242;2022-09-28T08:10:31;13.70;64.30
21502;DHT22;27639;48.674;9.242;2022-09-28T08:12:58;13.70;64.30
21502;DHT22;27639;48.674;9.242;2022-09-28T08:15:26;13.70;64.30
21502;DHT22;27639;48.674;9.242;2022-09-28T08:17:51;13.70;64.40
21502;DHT22;27639;48.674;9.242;2022-09-28T08:20:17;13.80;64.50
21502;DHT22;27639;48.674;9.242;2022-09-28T08:23:05;13.80;64.40
21502;DHT22;27639;48.674;9.242;2022-09-28T08:25:32;13.80;64.40
21502;DHT22;27639;48.674;9.242;2022-09-28T08:27:58;13.80;64.50
21502;DHT22;27639;48.674;9.242;2022-09-28T08:30:25;13.80;64.50
21502;DHT22;27639;48.674;9.242;2022-09-28T08:32:51;13.80;64.60
21502;DHT22;27639;48.674;9.242;2022-09-28T08:35:17;13.80;64.40
21502;DHT22;27639;48.674;9.242;2022-09-28T08:37:42;13.80;64.30
21502;DHT22;27639;48.674;9.242;2022-09-28T08:40:18;13.80;64.30
21502;DHT22;27639;48.674;9.242;2022-09-28T08:42:44;13.80;63.80
21502;DHT22;27639;48.674;9.242;2022-09-28T08:45:17;13.80;64.00
21502;DHT22;27639;48.674;9.242;2022-09-28T08:47:55;13.80;63.80
21502;DHT22;27639;48.674;9.242;2022-09-28T08:50:56;13.90;64.10
21502;DHT22;27639;48.674;9.242;2022-09-28T08:56:46;14.00;64.00
21502;DHT22;27639;48.674;9.242;2022-09-28T08:59:18;14.00;63.70
21502;DHT22;27639;48.674;9.242;2022-09-28T09:01:49;14.00;63.60
21502;DHT22;27639;48.674;9.242;2022-09-28T09:04:16;14.00;63.40
21502;DHT22;27639;48.674;9.242;2022-09-28T09:09:44;14.10;63.00
21502;DHT22;27639;48.674;9.242;2022-09-28T09:17:31;14.10;63.00
21502;DHT22;27639;48.674;9.242;2022-09-28T09:22:59;14.10;62.70
21502;DHT22;27639;48.674;9.242;2022-09-28T09:36:33;14.30;61.70
21502;DHT22;27639;48.674;9.242;2022-09-28T09:39:16;14.30;61.20
21502;DHT22;27639;48.674;9.242;2022-09-28T09:41:53;14.40;61.30
21502;DHT22;27639;48.674;9.242;2022-09-28T09:47:03;14.40;61.00
21502;DHT22;27639;48.674;9.242;2022-09-28T09:49:58;14.40;60.60
21502;DHT22;27639;48.674;9.242;2022-09-28T09:52:40;14.50;60.60
21502;DHT22;27639;48.674;9.242;2022-09-28T09:55:17;14.50;60.80
21502;DHT22;27639;48.674;9.242;2022-09-28T09:57:54;14.50;60.70
21502;DHT22;27639;48.674;9.242;2022-09-28T10:00:22;14.50;60.60
21502;DHT22;27639;48.674;9.242;2022-09-28T10:02:49;14.60;60.40
21502;DHT22;27639;48.674;9.242;2022-09-28T10:05:24;14.60;60.20
21502;DHT22;27639;48.674;9.242;2022-09-28T10:08:14;14.70;60.00
21502;DHT22;27639;48.674;9.242;2022-09-28T10:10:53;14.70;59.80
21502;DHT22;27639;48.674;9.242;2022-09-28T10:13:19;14.70;59.80
21502;DHT22;27639;48.674;9.242;2022-09-28T10:15:45;14.70;59.80
21502;DHT22;27639;48.674;9.242;2022-09-28T10:18:18;14.80;59.60
21502;DHT22;27639;48.674;9.242;2022-09-28T10:20:44;14.80;59.70
21502;DHT22;27639;48.674;9.242;2022-09-28T10:23:35;14.80;59.60
21502;DHT22;27639;48.674;9.242;2022-09-28T10:26:06;14.80;59.20
21502;DHT22;27639;48.674;9.242;2022-09-28T10:29:03;14.80;59.30
21502;DHT22;27639;48.674;9.242;2022-09-28T10:31:48;14.90;59.10
21502;DHT22;27639;48.674;9.242;2022-09-28T10:34:16;14.90;59.00
21502;DHT22;27639;48.674;9.242;2022-09-28T10:42:11;14.90;58.80
21502;DHT22;27639;48.674;9.242;2022-09-28T10:44:59;14.90;58.80
21502;DHT22;27639;48.674;9.242;2022-09-28T10:47:29;14.90;58.60
21502;DHT22;27639;48.674;9.242;2022-09-28T10:49:57;14.90;58.60
21502;DHT22;27639;48.674;9.242;2022-09-28T10:54:58;14.90;58.30
21502;DHT22;27639;48.674;9.242;2022-09-28T10:57:32;14.90;58.30
21502;DHT22;27639;48.674;9.242;2022-09-28T10:59:57;14.90;58.40
21502;DHT22;27639;48.674;9.242;2022-09-28T11:02:34;15.00;58.40
21502;DHT22;27639;48.674;9.242;2022-09-28T11:05:03;15.00;58.20
21502;DHT22;27639;48.674;9.242;2022-09-28T11:07:31;15.00;58.30
21502;DHT22;27639;48.674;9.242;2022-09-28T11:09:59;15.10;58.50
21502;DHT22;27639;48.674;9.242;2022-09-28T11:12:37;15.10;58.40
21502;DHT22;27639;48.674;9.242;2022-09-28T11:15:16;15.20;58.10
21502;DHT22;27639;48.674;9.242;2022-09-28T11:17:42;15.10;58.60
21502;DHT22;27639;48.674;9.242;2022-09-28T11:22:51;15.20;58.40
21502;DHT22;27639;48.674;9.242;2022-09-28T11:28:02;15.30;58.10
21502;DHT22;27639;48.674;9.242;2022-09-28T11:30:50;15.40;57.70
21502;DHT22;27639;48.674;9.242;2022-09-28T11:33:40;15.30;57.40
21502;DHT22;27639;48.674;9.242;2022-09-28T11:49:42;15.20;57.30
21502;DHT22;27639;48.674;9.242;2022-09-28T11:57:37;15.40;57.20
21502;DHT22;27639;48.674;9.242;2022-09-28T12:00:06;15.40;57.10
21502;DHT22;27639;48.674;9.242;2022-09-28T12:06:01;15.40;56.70
21502;DHT22;27639;48.674;9.242;2022-09-28T12:08:34;15.30;56.90
21502;DHT22;27639;48.674;9.242;2022-09-28T12:13:31;15.50;56.90
21502;DHT22;27639;48.674;9.242;2022-09-28T12:18:32;15.60;56.60
21502;DHT22;27639;48.674;9.242;2022-09-28T12:23:40;15.70;56.20
21502;DHT22;27639;48.674;9.242;2022-09-28T12:28:55;15.80;55.90
21502;DHT22;27639;48.674;9.242;2022-09-28T12:31:36;15.80;55.90
21502;DHT22;27639;48.674;9.242;2022-09-28T12:34:02;15.80;55.50
21502;DHT22;27639;48.674;9.242;2022-09-28T12:36:30;15.90;55.30
21502;DHT22;27639;48.674;9.242;2022-09-28T12:45:05;15.90;54.60
21502;DHT22;27639;48.674;9.242;2022-09-28T12:50:43;15.90;54.30
21502;DHT22;27639;48.674;9.242;2022-09-28T12:56:03;15.90;54.20
21502;DHT22;27639;48.674;9.242;2022-09-28T12:58:52;15.90;54.20
21502;DHT22;27639;48.674;9.242;2022-09-28T13:07:17;15.90;54.10
21502;DHT22;27639;48.674;9.242;2022-09-28T13:12:52;15.70;54.10
21502;DHT22;27639;48.674;9.242;2022-09-28T13:18:30;15.80;54.30
21502;DHT22;27639;48.674;9.242;2022-09-28T13:23:59;15.90;54.30
21502;DHT22;27639;48.674;9.242;2022-09-28T13:26:39;15.90;54.10
21502;DHT22;27639;48.674;9.242;2022-09-28T13:29:14;15.90;53.90
21502;DHT22;27639;48.674;9.242;2022-09-28T13:31:48;15.80;53.60
21502;DHT22;27639;48.674;9.242;2022-09-28T13:34:21;15.70;53.60
21502;DHT22;27639;48.674;9.242;2022-09-28T13:39:53;15.70;53.70
21502;DHT22;27639;48.674;9.242;2022-09-28T13:42:25;15.70;53.80
21502;DHT22;27639;48.674;9.242;2022-09-28T13:47:57;15.70;53.30
21502;DHT22;27639;48.674;9.242;2022-09-28T13:50:47;15.80;53.60
21502;DHT22;27639;48.674;9.242;2022-09-28T13:58:29;15.90;53.00
21502;DHT22;27639;48.674;9.242;2022-09-28T14:01:59;15.90;53.10
21502;DHT22;27639;48.674;9.242;2022-09-28T14:04:23;16.00;53.30
21502;DHT22;27639;48.674;9.242;2022-09-28T14:06:53;16.00;53.00
21502;DHT22;27639;48.674;9.242;2022-09-28T14:09:41;15.90;53.00
21502;DHT22;27639;48.674;9.242;2022-09-28T14:12:27;15.90;53.20
21502;DHT22;27639;48.674;9.242;2022-09-28T14:14:53;15.90;52.90
21502;DHT22;27639;48.674;9.242;2022-09-28T14:20:00;15.90;53.00
21502;DHT22;27639;48.674;9.242;2022-09-28T14:25:23;15.80;52.70
21502;DHT22;27639;48.674;9.242;2022-09-28T14:31:13;15.80;52.20
21502;DHT22;27639;48.674;9.242;2022-09-28T14:33:39;15.80;53.30
21502;DHT22;27639;48.674;9.242;2022-09-28T14:36:21;15.80;52.80
21502;DHT22;27639;48.674;9.242;2022-09-28T14:39:29;15.90;52.70
21502;DHT22;27639;48.674;9.242;2022-09-28T14:42:17;15.90;52.70
21502;DHT22;27639;48.674;9.242;2022-09-28T14:47:43;15.90;52.10
21502;DHT22;27639;48.674;9.242;2022-09-28T14:50:28;15.80;52.60
21502;DHT22;27639;48.674;9.242;2022-09-28T14:52:56;15.90;52.50
21502;DHT22;27639;48.674;9.242;2022-09-28T14:55:37;15.80;52.10
21502;DHT22;27639;48.674;9.242;2022-09-28T14:58:05;15.70;51.50
21502;DHT22;27639;48.674;9.242;2022-09-28T15:00:42;15.70;52.10
21502;DHT22;27639;48.674;9.242;2022-09-28T15:03:09;15.60;51.60
21502;DHT22;27639;48.674;9.242;2022-09-28T15:05:44;15.60;51.80
21502;DHT22;27639;48.674;9.242;2022-09-28T15:08:11;15.60;51.80
21502;DHT22;27639;48.674;9.242;2022-09-28T15:10:39;15.60;51.90
21502;DHT22;27639;48.674;9.242;2022-09-28T15:13:22;15.60;51.60
21502;DHT22;27639;48.674;9.242;2022-09-28T15:21:11;15.60;51.40
21502;DHT22;27639;48.674;9.242;2022-09-28T15:23:42;15.60;51.60
21502;DHT22;27639;48.674;9.242;2022-09-28T15:26:24;15.60;51.80
21502;DHT22;27639;48.674;9.242;2022-09-28T15:28:52;15.60;51.40
21502;DHT22;27639;48.674;9.242;2022-09-28T15:31:20;15.60;51.50
21502;DHT22;27639;48.674;9.242;2022-09-28T15:33:46;15.50;51.20
21502;DHT22;27639;48.674;9.242;2022-09-28T15:36:34;15.50;51.20
21502;DHT22;27639;48.674;9.242;2022-09-28T15:39:03;15.50;51.10
21502;DHT22;27639;48.674;9.242;2022-09-28T15:41:29;15.40;51.00
21502;DHT22;27639;48.674;9.242;2022-09-28T15:44:26;15.40;51.40
21502;DHT22;27639;48.674;9.242;2022-09-28T15:49:38;15.50;51.30
21502;DHT22;27639;48.674;9.242;2022-09-28T15:52:42;15.50;51.10
21502;DHT22;27639;48.674;9.242;2022-09-28T15:55:48;15.40;51.00
21502;DHT22;27639;48.674;9.242;2022-09-28T15:58:19;15.40;51.30
21502;DHT22;27639;48.674;9.242;2022-09-28T16:00:50;15.30;51.40
21502;DHT22;27639;48.674;9.242;2022-09-28T16:03:36;15.30;51.30
21502;DHT22;27639;48.674;9.242;2022-09-28T16:06:09;15.40;51.60
21502;DHT22;27639;48.674;9.242;2022-09-28T16:16:14;15.50;51.80
21502;DHT22;27639;48.674;9.242;2022-09-28T16:18:46;15.50;51.80
21502;DHT22;27639;48.674;9.242;2022-09-28T16:21:37;15.50;51.80
21502;DHT22;27639;48.674;9.242;2022-09-28T16:24:03;15.50;51.80
21502;DHT22;27639;48.674;9.242;2022-09-28T16:26:40;15.50;52.00
21502;DHT22;27639;48.674;9.242;2022-09-28T16:29:24;15.50;52.10
21502;DHT22;27639;48.674;9.242;2022-09-28T16:31:50;15.40;51.90
21502;DHT22;27639;48.674;9.242;2022-09-28T16:34:27;15.40;52.20
21502;DHT22;27639;48.674;9.242;2022-09-28T16:36:54;15.40;52.10
21502;DHT22;27639;48.674;9.242;2022-09-28T16:39:20;15.40;52.20
21502;DHT22;27639;48.674;9.242;2022-09-28T16:41:51;15.40;52.20
21502;DHT22;27639;48.674;9.242;2022-09-28T16:44:24;15.30;52.20
21502;DHT22;27639;48.674;9.242;2022-09-28T16:46:51;15.30;52.30
21502;DHT22;27639;48.674;9.242;2022-09-28T16:49:19;15.30;52.30
21502;DHT22;27639;48.674;9.242;2022-09-28T16:51:46;15.30;52.40
21502;DHT22;27639;48.674;9.242;2022-09-28T16:54:15;15.30;52.50
21502;DHT22;27639;48.674;9.242;2022-09-28T16:57:00;15.30;52.50
21502;DHT22;27639;48.674;9.242;2022-09-28T16:59:27;15.20;52.50
21502;DHT22;27639;48.674;9.242;2022-09-28T17:01:53;15.20;52.50
21502;DHT22;27639;48.674;9.242;2022-09-28T17:04:21;15.20;52.50
21502;DHT22;27639;48.674;9.242;2022-09-28T17:06:52;15.10;52.40
21502;DHT22;27639;48.674;9.242;2022-09-28T17:09:22;15.10;52.50
21502;DHT22;27639;48.674;9.242;2022-09-28T17:11:47;15.10;52.60
21502;DHT22;27639;48.674;9.242;2022-09-28T17:14:22;15.10;52.80
21502;DHT22;27639;48.674;9.242;2022-09-28T17:16:48;15.00;52.80
21502;DHT22;27639;48.674;9.242;2022-09-28T17:19:23;15.00;53.10
21502;DHT22;27639;48.674;9.242;2022-09-28T17:21:51;15.00;53.30
21502;DHT22;27639;48.674;9.242;2022-09-28T17:24:18;14.90;53.70
21502;DHT22;27639;48.674;9.242;2022-09-28T17:26:45;15.00;54.20
21502;DHT22;27639;48.674;9.242;2022-09-28T17:29:12;14.90;54.10
21502;DHT22;27639;48.674;9.242;2022-09-28T17:31:40;14.80;54.10
21502;DHT22;27639;48.674;9.242;2022-09-28T17:34:06;14.70;54.50
21502;DHT22;27639;48.674;9.242;2022-09-28T17:36:32;14.70;54.80
21502;DHT22;27639;48.674;9.242;2022-09-28T17:38:57;14.60;55.00
21502;DHT22;27639;48.674;9.242;2022-09-28T17:41:23;14.60;55.20
21502;DHT22;27639;48.674;9.242;2022-09-28T17:43:48;14.60;55.40
21502;DHT22;27639;48.674;9.242;2022-09-28T17:46:32;14.50;55.50
21502;DHT22;27639;48.674;9.242;2022-09-28T17:49:00;14.50;55.70
21502;DHT22;27639;48.674;9.242;2022-09-28T17:51:31;14.40;55.80
21502;DHT22;27639;48.674;9.242;2022-09-28T17:53:59;14.50;56.00
21502;DHT22;27639;48.674;9.242;2022-09-28T17:56:29;14.40;56.10
21502;DHT22;27639;48.674;9.242;2022-09-28T17:58:57;14.40;56.20
21502;DHT22;27639;48.674;9.242;2022-09-28T18:01:23;14.40;56.20
21502;DHT22;27639;48.674;9.242;2022-09-28T18:03:48;14.40;56.20
21502;DHT22;27639;48.674;9.242;2022-09-28T18:06:16;14.40;56.30
21502;DHT22;27639;48.674;9.242;2022-09-28T18:08:44;14.40;56.40
21502;DHT22;27639;48.674;9.242;2022-09-28T18:11:10;14.30;56.50
21502;DHT22;27639;48.674;9.242;2022-09-28T18:13:36;14.30;56.60
21502;DHT22;27639;48.674;9.242;2022-09-28T18:16:03;14.30;56.60
21502;DHT22;27639;48.674;9.242;2022-09-28T18:18:29;14.20;56.70
21502;DHT22;27639;48.674;9.242;2022-09-28T18:20:55;14.20;56.80
21502;DHT22;27639;48.674;9.242;2022-09-28T18:23:20;14.20;56.80
21502;DHT22;27639;48.674;9.242;2022-09-28T18:25:46;14.10;57.50
21502;DHT22;27639;48.674;9.242;2022-09-28T18:28:13;14.20;57.00
21502;DHT22;27639;48.674;9.242;2022-09-28T18:30:40;14.20;57.00
21502;DHT22;27639;48.674;9.242;2022-09-28T18:33:07;14.20;57.10
21502;DHT22;27639;48.674;9.242;2022-09-28T18:35:32;14.10;57.00
21502;DHT22;27639;48.674;9.242;2022-09-28T18:37:58;14.10;57.00
21502;DHT22;27639;48.674;9.242;2022-09-28T18:40:24;14.10;57.10
21502;DHT22;27639;48.674;9.242;2022-09-28T18:42:50;14.10;57.10
21502;DHT22;27639;48.674;9.242;2022-09-28T18:45:16;14.10;57.00
21502;DHT22;27639;48.674;9.242;2022-09-28T18:47:46;14.00;57.10
21502;DHT22;27639;48.674;9.242;2022-09-28T18:50:15;14.00;57.70
21502;DHT22;27639;48.674;9.242;2022-09-28T18:52:42;14.00;57.10